createdAt,value
2017-04-10T00:00:09.448Z,81.9
2017-04-10T00:01:11.280Z,82
2017-04-10T00:02:13.448Z,81.8
2017-04-10T00:03:15.608Z,82.1
2017-04-10T00:04:17.442Z,82
2017-04-10T00:05:19.261Z,82
2017-04-10T00:06:21.436Z,82
2017-04-10T00:07:23.606Z,82.3
2017-04-10T00:08:25.434Z,82.2
2017-04-10T00:09:27.257Z,82.1
2017-04-10T00:10:29.095Z,81.9
2017-04-10T00:11:30.915Z,82.1
2017-04-10T00:12:32.744Z,82.3
2017-04-10T00:13:34.570Z,82.6
2017-04-10T00:14:36.398Z,82.8
2017-04-10T00:15:38.231Z,82.6
2017-04-10T00:16:40.062Z,82.7
2017-04-10T00:17:41.904Z,82.7
2017-04-10T00:18:43.737Z,82.7
2017-04-10T00:19:45.903Z,82.7
2017-04-10T00:20:47.738Z,82.8
2017-04-10T00:21:49.617Z,82.7
2017-04-10T00:22:51.457Z,82.7
2017-04-10T00:23:53.285Z,82.8
2017-04-10T00:24:55.110Z,82.9
2017-04-10T00:25:57.296Z,83.1
2017-04-10T00:26:59.120Z,83.1
2017-04-10T00:28:01.659Z,83
2017-04-10T00:29:03.489Z,82.9
2017-04-10T00:30:05.673Z,83
2017-04-10T00:31:07.839Z,83
2017-04-10T00:32:09.666Z,83.1
2017-04-10T00:33:11.494Z,83.2
2017-04-10T00:34:13.367Z,83.3
2017-04-10T00:35:15.194Z,83.3
2017-04-10T00:36:17.027Z,83.4
2017-04-10T00:37:18.882Z,83.7
2017-04-10T00:38:21.049Z,83.7
2017-04-10T00:39:22.885Z,83.7
2017-04-10T00:40:24.715Z,83.6
2017-04-10T00:41:26.539Z,83.5
2017-04-10T00:42:28.366Z,83.7
2017-04-10T00:43:30.208Z,84.1
2017-04-10T00:44:32.031Z,84.1
2017-04-10T00:45:33.860Z,84.2
2017-04-10T00:46:36.036Z,84.2
2017-04-10T00:47:37.869Z,84.2
2017-04-10T00:48:39.699Z,84.1
2017-04-10T00:49:41.528Z,84.2
2017-04-10T00:50:43.353Z,84.3
2017-04-10T00:51:45.190Z,84.4
2017-04-10T00:52:47.012Z,84.6
2017-04-10T00:53:49.189Z,84.4
2017-04-10T00:54:51.021Z,84.2
2017-04-10T00:55:53.194Z,84.1
2017-04-10T00:56:55.028Z,84
2017-04-10T00:57:56.858Z,84.2
2017-04-10T00:58:59.033Z,84.3
2017-04-10T01:00:00.859Z,84.3
2017-04-10T01:01:02.695Z,84.2
2017-04-10T01:02:04.523Z,84.4
2017-04-10T01:03:06.345Z,84.5
2017-04-10T01:04:08.172Z,84.5
2017-04-10T01:05:10.000Z,84.4
2017-04-10T01:06:11.830Z,84.2
2017-04-10T01:07:13.993Z,83.9
2017-04-10T01:08:15.818Z,83.9
2017-04-10T01:09:17.647Z,84.2
2017-04-10T01:10:19.825Z,84.2
2017-04-10T01:11:21.662Z,84.1
2017-04-10T01:12:23.501Z,84
2017-04-10T01:13:25.332Z,84.3
2017-04-10T01:14:27.157Z,84.7
2017-04-10T01:15:28.987Z,84.5
2017-04-10T01:16:31.169Z,84.3
2017-04-10T01:17:32.993Z,84.4
2017-04-10T01:18:35.169Z,84.2
2017-04-10T01:19:36.994Z,84
2017-04-10T01:20:38.823Z,83.9
2017-04-10T01:21:40.987Z,83.8
2017-04-10T01:22:42.818Z,83.6
2017-04-10T01:23:44.645Z,83.8
2017-04-10T01:24:46.492Z,83.8
2017-04-10T01:25:48.312Z,84
2017-04-10T01:26:50.479Z,84.3
2017-04-10T01:27:52.344Z,84.4
2017-04-10T01:28:54.209Z,84.4
2017-04-10T01:29:56.034Z,84.4
2017-04-10T01:30:57.869Z,84.4
2017-04-10T01:31:59.701Z,84.2
2017-04-10T01:33:01.561Z,84.2
2017-04-10T01:34:03.388Z,84.3
2017-04-10T01:35:05.218Z,84.5
2017-04-10T01:36:07.049Z,84.6
2017-04-10T01:37:08.876Z,84.7
2017-04-10T01:38:10.709Z,84.8
2017-04-10T01:39:12.539Z,84.7
2017-04-10T01:40:14.373Z,84.7
2017-04-10T01:41:16.190Z,84.6
2017-04-10T01:42:18.021Z,84.6
2017-04-10T01:43:19.849Z,84.4
2017-04-10T01:44:21.823Z,84.4
2017-04-10T01:45:23.649Z,84.7
2017-04-10T01:46:25.473Z,84.8
2017-04-10T01:47:27.300Z,84.7
2017-04-10T01:48:29.126Z,84.3
2017-04-10T01:49:30.949Z,84.4
2017-04-10T01:50:32.772Z,84.5
2017-04-10T01:51:34.594Z,84.6
2017-04-10T01:52:36.429Z,84.5
2017-04-10T01:53:38.253Z,84.6
2017-04-10T01:54:40.076Z,84.7
2017-04-10T01:55:41.902Z,84.9
2017-04-10T01:56:43.732Z,84.9
2017-04-10T01:57:45.893Z,85.1
2017-04-10T01:58:47.726Z,85.2
2017-04-10T01:59:49.547Z,85.5
2017-04-10T02:00:51.375Z,85.4
2017-04-10T02:01:53.198Z,85.3
2017-04-10T02:02:55.361Z,85.5
2017-04-10T02:03:57.184Z,85.6
2017-04-10T02:04:59.009Z,85.7
2017-04-10T02:06:00.834Z,85.9
2017-04-10T02:07:02.660Z,85.9
2017-04-10T02:08:04.488Z,85.9
2017-04-10T02:09:06.680Z,86.1
2017-04-10T02:10:08.507Z,86
2017-04-10T02:11:11.010Z,86
2017-04-10T02:12:12.840Z,86.1
2017-04-10T02:13:15.021Z,86.1
2017-04-10T02:14:16.835Z,86.2
2017-04-10T02:15:18.667Z,86.4
2017-04-10T02:16:20.499Z,86.7
2017-04-10T02:17:22.331Z,86.6
2017-04-10T02:18:24.482Z,86.6
2017-04-10T02:19:26.315Z,86.3
2017-04-10T02:20:28.140Z,86.1
2017-04-10T02:21:29.969Z,86.2
2017-04-10T02:22:31.793Z,86.6
2017-04-10T02:23:33.622Z,86.5
2017-04-10T02:24:35.455Z,86.4
2017-04-10T02:25:37.294Z,86.5
2017-04-10T02:26:39.124Z,86.6
2017-04-10T02:27:41.621Z,86.5
2017-04-10T02:28:43.790Z,86.9
2017-04-10T02:29:45.617Z,86.2
2017-04-10T02:30:47.444Z,86.3
2017-04-10T02:31:49.267Z,86.8
2017-04-10T02:32:51.093Z,86.8
2017-04-10T02:33:53.268Z,86.9
2017-04-10T02:34:55.099Z,86.7
2017-04-10T02:35:56.922Z,86.6
2017-04-10T02:36:58.745Z,86.5
2017-04-10T02:38:00.571Z,86.4
2017-04-10T02:39:02.406Z,86.4
2017-04-10T02:40:04.236Z,86.6
2017-04-10T02:41:06.065Z,86.8
2017-04-10T02:42:07.889Z,86.8
2017-04-10T02:43:09.722Z,86.6
2017-04-10T02:44:11.541Z,86.6
2017-04-10T02:45:13.375Z,86.7
2017-04-10T02:46:15.200Z,86.6
2017-04-10T02:47:17.032Z,86.4
2017-04-10T02:48:19.544Z,86.3
2017-04-10T02:49:21.371Z,86.2
2017-04-10T02:50:23.198Z,85.9
2017-04-10T02:51:25.031Z,85.6
2017-04-10T02:52:26.853Z,85.3
2017-04-10T02:53:28.678Z,85.5
2017-04-10T02:54:30.854Z,85.7
2017-04-10T02:55:32.685Z,85.8
2017-04-10T02:56:34.849Z,86.1
2017-04-10T02:57:36.674Z,86.1
2017-04-10T02:58:38.498Z,86.1
2017-04-10T02:59:40.324Z,86.4
2017-04-10T03:00:42.167Z,86.6
2017-04-10T03:01:43.995Z,86.4
2017-04-10T03:02:45.826Z,86.5
2017-04-10T03:03:47.656Z,86.6
2017-04-10T03:04:49.482Z,87
2017-04-10T03:05:51.318Z,86.7
2017-04-10T03:06:53.475Z,86.9
2017-04-10T03:07:55.641Z,86.7
2017-04-10T03:08:57.827Z,87
2017-04-10T03:09:59.652Z,87.1
2017-04-10T03:11:01.475Z,87.3
2017-04-10T03:12:03.302Z,87.1
2017-04-10T03:13:05.126Z,87.1
2017-04-10T03:14:06.956Z,87.2
2017-04-10T03:15:08.773Z,87
2017-04-10T03:16:10.603Z,86.9
2017-04-10T03:17:12.779Z,86.7
2017-04-10T03:18:14.608Z,86.7
2017-04-10T03:19:16.436Z,86.9
2017-04-10T03:20:18.260Z,86.5
2017-04-10T03:21:20.094Z,86.7
2017-04-10T03:22:21.928Z,87
2017-04-10T03:23:23.776Z,87.2
2017-04-10T03:24:25.601Z,87.4
2017-04-10T03:25:27.416Z,87.3
2017-04-10T03:26:29.242Z,87.3
2017-04-10T03:27:31.063Z,87.4
2017-04-10T03:28:32.898Z,87.5
2017-04-10T03:29:34.721Z,87.7
2017-04-10T03:30:36.550Z,87.8
2017-04-10T03:31:38.727Z,88
2017-04-10T03:32:40.556Z,88.1
2017-04-10T03:33:42.389Z,88.1
2017-04-10T03:34:44.218Z,87.9
2017-04-10T03:35:46.044Z,88
2017-04-10T03:36:47.873Z,87.9
2017-04-10T03:37:50.042Z,88
2017-04-10T03:38:51.879Z,87.7
2017-04-10T03:39:53.703Z,87.9
2017-04-10T03:40:55.534Z,87.9
2017-04-10T03:41:57.359Z,87.9
2017-04-10T03:42:59.187Z,88.1
2017-04-10T03:44:01.357Z,88.2
2017-04-10T03:45:03.193Z,87.9
2017-04-10T03:46:05.019Z,87.8
2017-04-10T03:47:06.874Z,88
2017-04-10T03:48:08.996Z,87.9
2017-04-10T03:49:11.159Z,87.7
2017-04-10T03:50:12.987Z,87.8
2017-04-10T03:51:14.813Z,87.6
2017-04-10T03:52:16.635Z,87.8
2017-04-10T03:53:18.461Z,88.1
2017-04-10T03:54:20.292Z,88.2
2017-04-10T03:55:22.122Z,88.4
2017-04-10T03:56:23.951Z,88.2
2017-04-10T03:57:25.777Z,88.3
2017-04-10T03:58:27.600Z,88.4
2017-04-10T03:59:29.469Z,88.4
2017-04-10T04:00:31.295Z,88.1
2017-04-10T04:01:33.462Z,87.8
2017-04-10T04:02:35.314Z,88.1
2017-04-10T04:03:37.135Z,88.2
2017-04-10T04:04:38.962Z,87.9
2017-04-10T04:05:40.781Z,87.7
2017-04-10T04:06:42.605Z,87.8
2017-04-10T04:07:44.425Z,87.7
2017-04-10T04:08:46.580Z,87.7
2017-04-10T04:09:48.411Z,87.7
2017-04-10T04:10:50.572Z,87.8
2017-04-10T04:11:52.415Z,87.8
2017-04-10T04:12:54.240Z,88
2017-04-10T04:13:56.400Z,87.8
2017-04-10T04:14:58.233Z,87.9
2017-04-10T04:16:00.059Z,87.9
2017-04-10T04:17:01.930Z,87.8
2017-04-10T04:18:03.748Z,87.6
2017-04-10T04:19:05.579Z,87.6
2017-04-10T04:20:07.406Z,88
2017-04-10T04:21:09.233Z,87.7
2017-04-10T04:22:11.056Z,87.5
2017-04-10T04:23:12.883Z,87.8
2017-04-10T04:24:14.745Z,87.4
2017-04-10T04:25:16.568Z,87.3
2017-04-10T04:26:18.389Z,87.2
2017-04-10T04:27:20.565Z,87.2
2017-04-10T04:28:22.388Z,86.6
2017-04-10T04:29:24.223Z,86.9
2017-04-10T04:30:26.045Z,86.5
2017-04-10T04:31:27.868Z,86.3
2017-04-10T04:32:30.037Z,86.6
2017-04-10T04:33:31.860Z,86.5
2017-04-10T04:34:33.685Z,86.4
2017-04-10T04:35:35.507Z,86.2
2017-04-10T04:36:37.334Z,86.3
2017-04-10T04:37:39.169Z,86.5
2017-04-10T04:38:40.997Z,86.3
2017-04-10T04:39:43.161Z,86.4
2017-04-10T04:40:44.991Z,86
2017-04-10T04:41:46.821Z,85.9
2017-04-10T04:42:48.645Z,86.3
2017-04-10T04:43:50.471Z,86.1
2017-04-10T04:44:52.395Z,85.8
2017-04-10T04:45:54.228Z,86
2017-04-10T04:46:56.051Z,86.2
2017-04-10T04:47:57.879Z,85.4
2017-04-10T04:49:00.081Z,85
2017-04-10T04:50:01.913Z,85
2017-04-10T04:51:05.606Z,84.8
2017-04-10T04:52:08.174Z,84.3
2017-04-10T04:53:12.425Z,84.1
2017-04-10T04:54:14.257Z,84.4
2017-04-10T04:55:16.082Z,84.8
2017-04-10T04:56:17.908Z,84.6
2017-04-10T04:57:19.744Z,84.3
2017-04-10T04:58:21.569Z,84.3
2017-04-10T04:59:23.387Z,84.5
2017-04-10T05:00:25.562Z,83.7
2017-04-10T05:01:27.399Z,83.4
2017-04-10T05:02:29.225Z,83.7
2017-04-10T05:03:31.046Z,84
2017-04-10T05:04:32.878Z,83.7
2017-04-10T05:05:34.703Z,83.6
2017-04-10T05:06:36.527Z,83.2
2017-04-10T05:07:38.368Z,82.8
2017-04-10T05:08:40.863Z,83.1
2017-04-10T05:09:43.024Z,83.1
2017-04-10T05:10:44.863Z,83.4
2017-04-10T05:11:46.688Z,83.1
2017-04-10T05:12:48.515Z,82.7
2017-04-10T05:13:50.356Z,82.5
2017-04-10T05:14:52.529Z,82.6
2017-04-10T05:15:54.368Z,82.5
2017-04-10T05:16:56.191Z,82.6
2017-04-10T05:17:58.052Z,82.4
2017-04-10T05:18:59.901Z,82.7
2017-04-10T05:20:44.763Z,82.3
2017-04-10T05:21:52.291Z,82.3
2017-04-10T05:22:54.148Z,82.2
2017-04-10T05:23:55.973Z,82.5
2017-04-10T05:24:57.812Z,82.8
2017-04-10T05:25:59.641Z,82.5
2017-04-10T05:27:01.465Z,82.5
2017-04-10T05:28:03.297Z,82.4
2017-04-10T05:29:05.118Z,82.1
2017-04-10T05:30:07.300Z,82.1
2017-04-10T05:31:09.127Z,81.8
2017-04-10T05:32:12.148Z,81.5
2017-04-10T05:33:13.987Z,81.5
2017-04-10T05:34:15.814Z,81.4
2017-04-10T05:35:17.648Z,81.3
2017-04-10T05:36:19.466Z,81.1
2017-04-10T05:37:21.300Z,81.1
2017-04-10T05:38:23.124Z,81.2
2017-04-10T05:39:24.966Z,81.7
2017-04-10T05:40:27.130Z,81.1
2017-04-10T05:41:28.979Z,80.6
2017-04-10T05:42:30.814Z,80.5
2017-04-10T05:43:32.665Z,80.2
2017-04-10T05:44:34.867Z,80.5
2017-04-10T05:45:36.714Z,80.2
2017-04-10T05:46:38.565Z,79.9
2017-04-10T05:47:40.409Z,79.6
2017-04-10T05:48:42.237Z,79.4
2017-04-10T05:49:44.079Z,79
2017-04-10T05:50:45.925Z,78.6
2017-04-10T05:51:49.054Z,78.7
2017-04-10T05:52:50.882Z,78.9
2017-04-10T05:53:52.719Z,78.3
2017-04-10T05:54:54.559Z,78
2017-04-10T05:55:56.458Z,78
2017-04-10T05:56:58.643Z,78.3
2017-04-10T05:58:00.499Z,77.9
2017-04-10T05:59:02.333Z,77.6
2017-04-10T06:00:04.540Z,77.3
2017-04-10T06:01:06.375Z,77.6
2017-04-10T06:02:08.211Z,76.9
2017-04-10T06:03:10.065Z,76.9
2017-04-10T06:04:11.899Z,76.7
2017-04-10T06:05:13.791Z,76.7
2017-04-10T06:06:15.658Z,76.6
2017-04-10T06:07:17.530Z,76
2017-04-10T06:08:19.370Z,75.9
2017-04-10T06:09:21.198Z,76.4
2017-04-10T06:10:23.022Z,75.6
2017-04-10T06:11:24.852Z,75.6
2017-04-10T06:12:27.021Z,75.7
2017-04-10T06:13:28.859Z,75.9
2017-04-10T06:14:30.687Z,75.7
2017-04-10T06:15:32.564Z,75.9
2017-04-10T06:16:34.725Z,76
2017-04-10T06:17:36.611Z,76.1
2017-04-10T06:18:38.448Z,75.4
2017-04-10T06:19:40.318Z,75.8
2017-04-10T06:20:42.147Z,75.5
2017-04-10T06:21:44.335Z,75.2
2017-04-10T06:22:46.201Z,75.1
2017-04-10T06:23:48.474Z,75.1
2017-04-10T06:24:50.313Z,74.8
2017-04-10T06:25:52.234Z,74.7
2017-04-10T06:26:54.069Z,75.1
2017-04-10T06:27:55.908Z,74.8
2017-04-10T06:28:57.805Z,74.9
2017-04-10T06:29:59.649Z,74.8
2017-04-10T06:31:01.477Z,74.7
2017-04-10T06:32:03.302Z,74.8
2017-04-10T06:33:05.135Z,75.1
2017-04-10T06:34:07.028Z,75
2017-04-10T06:35:08.857Z,75
2017-04-10T06:36:10.826Z,75.1
2017-04-10T06:37:12.657Z,75.2
2017-04-10T06:38:14.492Z,75.2
2017-04-10T06:39:16.319Z,75.4
2017-04-10T06:40:18.152Z,75.4
2017-04-10T06:41:20.043Z,75.6
2017-04-10T06:42:21.882Z,75.5
2017-04-10T06:43:23.708Z,75.6
2017-04-10T06:44:25.538Z,75.4
2017-04-10T06:45:27.397Z,75.2
2017-04-10T06:46:29.234Z,75
2017-04-10T06:47:31.118Z,74.9
2017-04-10T06:48:32.954Z,75.3
2017-04-10T06:49:35.128Z,75.3
2017-04-10T06:50:37.298Z,74.9
2017-04-10T06:51:39.127Z,75.2
2017-04-10T06:52:40.957Z,75
2017-04-10T06:53:42.781Z,74.4
2017-04-10T06:54:44.611Z,74.2
2017-04-10T06:55:46.441Z,74
2017-04-10T06:56:48.406Z,73.9
2017-04-10T06:57:50.237Z,74.1
2017-04-10T06:58:52.075Z,73.8
2017-04-10T06:59:54.020Z,73.2
2017-04-10T07:00:56.195Z,73.4
2017-04-10T07:01:58.063Z,72.9
2017-04-10T07:02:59.894Z,73.5
2017-04-10T07:04:01.726Z,72.8
2017-04-10T07:05:03.564Z,72.6
2017-04-10T07:06:05.614Z,72.7
2017-04-10T07:07:07.438Z,72.7
2017-04-10T07:08:09.445Z,72
2017-04-10T07:09:11.273Z,71.7
2017-04-10T07:10:13.102Z,71.5
2017-04-10T07:11:14.930Z,71.3
2017-04-10T07:12:16.887Z,71.4
2017-04-10T07:13:18.718Z,71.1
2017-04-10T07:14:20.764Z,71.3
2017-04-10T07:15:22.672Z,70.8
2017-04-10T07:16:24.495Z,71.3
2017-04-10T07:17:26.331Z,70.9
2017-04-10T07:18:28.330Z,71.2
2017-04-10T07:19:30.166Z,71.6
2017-04-10T07:20:31.994Z,71.1
2017-04-10T07:21:33.837Z,71.3
2017-04-10T07:22:35.670Z,71.5
2017-04-10T07:23:37.507Z,71.1
2017-04-10T07:24:39.339Z,71.9
2017-04-10T07:25:41.164Z,71.5
2017-04-10T07:26:43.003Z,71.7
2017-04-10T07:27:44.838Z,71.3
2017-04-10T07:28:46.663Z,71
2017-04-10T07:29:48.546Z,71.1
2017-04-10T07:30:50.382Z,70.9
2017-04-10T07:31:52.220Z,71.6
2017-04-10T07:32:54.050Z,71
2017-04-10T07:33:55.883Z,70.7
2017-04-10T07:34:57.745Z,70.8
2017-04-10T07:35:59.578Z,70.4
2017-04-10T07:37:01.424Z,70.7
2017-04-10T07:38:03.254Z,70.3
2017-04-10T07:39:05.083Z,70.1
2017-04-10T07:40:06.921Z,70.2
2017-04-10T07:41:09.127Z,70.3
2017-04-10T07:42:10.959Z,69.5
2017-04-10T07:43:12.799Z,70
2017-04-10T07:44:14.631Z,69.7
2017-04-10T07:45:16.832Z,69.6
2017-04-10T07:46:18.669Z,69.6
2017-04-10T07:47:20.508Z,69.8
2017-04-10T07:48:22.335Z,69.7
2017-04-10T07:49:24.176Z,69.8
2017-04-10T07:50:26.012Z,70
2017-04-10T07:51:28.182Z,70
2017-04-10T07:52:30.361Z,69.7
2017-04-10T07:53:32.189Z,70.3
2017-04-10T07:54:34.248Z,70
2017-04-10T07:55:36.082Z,70.1
2017-04-10T07:56:37.923Z,69.9
2017-04-10T07:57:39.755Z,70
2017-04-10T07:58:41.586Z,69.7
2017-04-10T07:59:43.427Z,70.3
2017-04-10T08:00:45.273Z,70.5
2017-04-10T08:01:47.103Z,70.2
2017-04-10T08:02:48.941Z,70.6
2017-04-10T08:03:50.780Z,70.4
2017-04-10T08:04:52.623Z,70.6
2017-04-10T08:05:54.456Z,70.8
2017-04-10T08:06:56.279Z,70.8
2017-04-10T08:07:58.113Z,71.1
2017-04-10T08:08:59.941Z,70.6
2017-04-10T08:10:01.787Z,70.7
2017-04-10T08:11:03.620Z,69.9
2017-04-10T08:12:05.451Z,70.1
2017-04-10T08:13:07.289Z,70.5
2017-04-10T08:14:09.249Z,70
2017-04-10T08:15:11.216Z,70.1
2017-04-10T08:16:13.042Z,70.2
2017-04-10T08:17:14.872Z,70.5
2017-04-10T08:18:16.713Z,70.9
2017-04-10T08:19:18.542Z,70.7
2017-04-10T08:20:20.381Z,70.5
2017-04-10T08:21:22.206Z,71.1
2017-04-10T08:22:24.380Z,71.8
2017-04-10T08:23:26.214Z,71.4
2017-04-10T08:24:28.051Z,71.6
2017-04-10T08:25:30.192Z,72.1
2017-04-10T08:26:32.029Z,71.7
2017-04-10T08:27:33.863Z,71.3
2017-04-10T08:28:35.694Z,70.8
2017-04-10T08:29:37.520Z,70.7
2017-04-10T08:30:39.360Z,72
2017-04-10T08:31:41.224Z,72
2017-04-10T08:32:43.066Z,72.3
2017-04-10T08:33:44.909Z,72.3
2017-04-10T08:34:46.735Z,72.7
2017-04-10T08:35:48.568Z,72.2
2017-04-10T08:36:50.399Z,72.6
2017-04-10T08:37:52.240Z,72
2017-04-10T08:38:54.420Z,72.3
2017-04-10T08:39:56.248Z,72.1
2017-04-10T08:40:58.113Z,72
2017-04-10T08:41:59.968Z,72
2017-04-10T08:43:01.800Z,73
2017-04-10T08:44:03.636Z,72.6
2017-04-10T08:45:05.467Z,71.6
2017-04-10T08:46:07.307Z,71.2
2017-04-10T08:47:09.151Z,71.6
2017-04-10T08:48:10.981Z,72.1
2017-04-10T08:49:12.858Z,72.4
2017-04-10T08:50:14.998Z,72.5
2017-04-10T08:51:16.843Z,72.9
2017-04-10T08:52:18.677Z,72.8
2017-04-10T08:53:20.507Z,72.9
2017-04-10T08:54:22.329Z,72.8
2017-04-10T08:55:24.449Z,73.6
2017-04-10T08:56:26.276Z,74
2017-04-10T08:57:28.114Z,73.5
2017-04-10T08:58:29.938Z,73.2
2017-04-10T08:59:31.779Z,74.1
2017-04-10T09:00:33.617Z,73.2
2017-04-10T09:01:35.450Z,73.5
2017-04-10T09:02:37.286Z,73.7
2017-04-10T09:03:39.121Z,74
2017-04-10T09:04:40.971Z,73.6
2017-04-10T09:05:43.086Z,74.6
2017-04-10T09:06:44.925Z,74.5
2017-04-10T09:07:46.763Z,74.3
2017-04-10T09:08:48.596Z,74.1
2017-04-10T09:09:50.424Z,74.3
2017-04-10T09:10:52.260Z,74.8
2017-04-10T09:11:54.087Z,75.1
2017-04-10T09:12:55.919Z,74.6
2017-04-10T09:13:57.754Z,74.3
2017-04-10T09:14:59.614Z,74.2
2017-04-10T09:16:01.441Z,74.2
2017-04-10T09:17:03.604Z,74.5
2017-04-10T09:18:05.776Z,75.1
2017-04-10T09:19:07.611Z,74.9
2017-04-10T09:20:09.443Z,73.9
2017-04-10T09:21:11.287Z,73
2017-04-10T09:22:13.120Z,73.4
2017-04-10T09:23:15.313Z,73.1
2017-04-10T09:24:17.149Z,72.7
2017-04-10T09:25:18.980Z,72.7
2017-04-10T09:26:21.157Z,72.5
2017-04-10T09:27:22.980Z,72.3
2017-04-10T09:28:24.812Z,71.8
2017-04-10T09:29:26.988Z,72.3
2017-04-10T09:30:28.817Z,72.3
2017-04-10T09:31:31.197Z,72.3
2017-04-10T09:32:33.031Z,72.4
2017-04-10T09:33:34.862Z,73.1
2017-04-10T09:34:36.709Z,73.3
2017-04-10T09:35:38.531Z,74
2017-04-10T09:36:40.365Z,73.7
2017-04-10T09:37:42.233Z,73.6
2017-04-10T09:38:44.070Z,75
2017-04-10T09:39:45.894Z,74.4
2017-04-10T09:40:47.734Z,74.4
2017-04-10T09:41:49.562Z,74.5
2017-04-10T09:42:51.398Z,74.6
2017-04-10T09:43:53.230Z,75
2017-04-10T09:44:55.055Z,75.2
2017-04-10T09:45:56.897Z,75.1
2017-04-10T09:46:58.738Z,75.6
2017-04-10T09:48:00.570Z,75.1
2017-04-10T09:49:02.393Z,75.7
2017-04-10T09:50:04.239Z,76
2017-04-10T09:51:06.067Z,76.1
2017-04-10T09:52:07.904Z,76.1
2017-04-10T09:53:09.752Z,75.7
2017-04-10T09:54:11.958Z,76.5
2017-04-10T09:55:13.792Z,76.4
2017-04-10T09:56:15.623Z,76
2017-04-10T09:57:17.462Z,75.6
2017-04-10T09:58:19.302Z,75.7
2017-04-10T09:59:21.136Z,76
2017-04-10T10:00:22.974Z,76.2
2017-04-10T10:01:24.802Z,76.3
2017-04-10T10:02:26.631Z,76.5
2017-04-10T10:03:28.466Z,76.5
2017-04-10T10:04:30.302Z,76.2
2017-04-10T10:05:32.133Z,75.7
2017-04-10T10:06:33.962Z,76.5
2017-04-10T10:07:36.124Z,76.4
2017-04-10T10:08:37.950Z,76.4
2017-04-10T10:09:39.771Z,77
2017-04-10T10:10:41.596Z,76.4
2017-04-10T10:11:43.438Z,76.3
2017-04-10T10:12:45.257Z,76.5
2017-04-10T10:13:47.094Z,76.3
2017-04-10T10:14:48.925Z,76.4
2017-04-10T10:15:50.760Z,76.2
2017-04-10T10:16:52.582Z,76.4
2017-04-10T10:17:54.414Z,76.6
2017-04-10T10:18:56.241Z,76.1
2017-04-10T10:19:58.082Z,76.6
2017-04-10T10:20:59.919Z,76.6
2017-04-10T10:22:01.749Z,77.1
2017-04-10T10:23:03.586Z,76.8
2017-04-10T10:24:05.416Z,76.5
2017-04-10T10:25:07.246Z,75.5
2017-04-10T10:26:09.425Z,75
2017-04-10T10:27:11.258Z,75
2017-04-10T10:28:13.092Z,74.9
2017-04-10T10:29:14.928Z,74
2017-04-10T10:30:16.744Z,74.3
2017-04-10T10:31:18.577Z,73.4
2017-04-10T10:32:20.406Z,72.9
2017-04-10T10:33:22.276Z,73.4
2017-04-10T10:34:24.104Z,73.2
2017-04-10T10:35:25.944Z,72.7
2017-04-10T10:36:27.781Z,73
2017-04-10T10:37:29.612Z,73.1
2017-04-10T10:38:31.448Z,72.8
2017-04-10T10:39:33.276Z,73.3
2017-04-10T10:40:35.104Z,72.6
2017-04-10T10:41:36.937Z,73
2017-04-10T10:42:38.767Z,73.3
2017-04-10T10:43:40.600Z,73
2017-04-10T10:44:42.435Z,72.4
2017-04-10T10:45:44.309Z,72.4
2017-04-10T10:46:46.141Z,72.1
2017-04-10T10:47:47.973Z,71.6
2017-04-10T10:48:49.802Z,70.3
2017-04-10T10:49:51.640Z,70.6
2017-04-10T10:50:53.479Z,71.7
2017-04-10T10:51:55.313Z,71.6
2017-04-10T10:52:57.144Z,72.2
2017-04-10T10:53:58.977Z,73.6
2017-04-10T10:55:00.814Z,72.6
2017-04-10T10:56:02.647Z,71.7
2017-04-10T10:57:04.482Z,70.6
2017-04-10T10:58:06.307Z,71
2017-04-10T10:59:08.134Z,69.9
2017-04-10T11:00:09.962Z,70
2017-04-10T11:01:11.798Z,69.6
2017-04-10T11:02:13.633Z,69.6
2017-04-10T11:03:15.458Z,70.4
2017-04-10T11:04:17.297Z,69.5
2017-04-10T11:05:19.120Z,68.9
2017-04-10T11:06:20.972Z,69.6
2017-04-10T11:07:22.786Z,68.4
2017-04-10T11:08:24.624Z,68.2
2017-04-10T11:09:26.459Z,67.4
2017-04-10T11:10:28.307Z,66.2
2017-04-10T11:11:30.480Z,65.3
2017-04-10T11:12:32.324Z,67
2017-04-10T11:13:34.154Z,65.5
2017-04-10T11:14:35.988Z,64.8
2017-04-10T11:15:37.823Z,64.2
2017-04-10T11:16:39.651Z,63.7
2017-04-10T11:17:41.483Z,61.7
2017-04-10T11:18:43.323Z,60.5
2017-04-10T11:19:45.178Z,59.5
2017-04-10T11:20:47.008Z,57.8
2017-04-10T11:21:49.184Z,59.1
2017-04-10T11:22:51.031Z,57.4
2017-04-10T11:23:52.857Z,57
2017-04-10T11:24:54.691Z,57.5
2017-04-10T11:25:56.526Z,58.2
2017-04-10T11:26:58.933Z,58
2017-04-10T11:28:00.784Z,58.2
2017-04-10T11:29:02.627Z,58.5
2017-04-10T11:30:04.474Z,59.2
2017-04-10T11:31:06.305Z,58.4
2017-04-10T11:32:08.149Z,59.8
2017-04-10T11:33:09.996Z,59.4
2017-04-10T11:34:11.853Z,59.2
2017-04-10T11:35:13.692Z,59.9
2017-04-10T11:36:15.548Z,59.6
2017-04-10T11:37:17.378Z,59.3
2017-04-10T11:38:19.549Z,59.8
2017-04-10T11:39:21.713Z,60
2017-04-10T11:40:23.554Z,61
2017-04-10T11:41:25.398Z,59.7
2017-04-10T11:42:27.233Z,60.1
2017-04-10T11:43:29.083Z,60.3
2017-04-10T11:44:31.258Z,60.6
2017-04-10T11:45:33.100Z,60.8
2017-04-10T11:46:34.946Z,60.6
2017-04-10T11:47:36.774Z,60.4
2017-04-10T11:48:39.291Z,60
2017-04-10T11:49:41.132Z,60.2
2017-04-10T11:50:42.967Z,60.2
2017-04-10T11:51:44.803Z,61.4
2017-04-10T11:52:46.637Z,61.1
2017-04-10T11:53:48.473Z,60.8
2017-04-10T11:54:50.322Z,61.1
2017-04-10T11:55:52.157Z,61.3
2017-04-10T11:56:54.004Z,61.4
2017-04-10T11:57:55.842Z,61.9
2017-04-10T11:58:57.677Z,61.6
2017-04-10T11:59:59.507Z,62.2
2017-04-10T12:01:01.341Z,61.5
2017-04-10T12:02:03.182Z,61.7
2017-04-10T12:03:05.020Z,62.3
2017-04-10T12:04:07.204Z,62
2017-04-10T12:05:09.034Z,60.9
2017-04-10T12:06:10.874Z,59.8
2017-04-10T12:07:12.706Z,58.9
2017-04-10T12:08:14.553Z,59
2017-04-10T12:09:16.374Z,58.6
2017-04-10T12:10:18.225Z,58
2017-04-10T12:11:20.074Z,57.2
2017-04-10T12:12:21.919Z,58.8
2017-04-10T12:13:23.753Z,57.9
2017-04-10T12:14:25.598Z,57.8
2017-04-10T12:15:27.425Z,58.5
2017-04-10T12:16:29.267Z,58.1
2017-04-10T12:17:31.106Z,59
2017-04-10T12:18:33.296Z,59.2
2017-04-10T12:19:35.143Z,60.4
2017-04-10T12:20:36.966Z,59
2017-04-10T12:21:38.815Z,58.6
2017-04-10T12:22:40.659Z,58.5
2017-04-10T12:23:42.507Z,58.8
2017-04-10T12:24:44.337Z,59.3
2017-04-10T12:25:46.248Z,59.1
2017-04-10T12:26:48.097Z,57.7
2017-04-10T12:27:49.940Z,58
2017-04-10T12:28:51.785Z,56.9
2017-04-10T12:29:53.615Z,56.7
2017-04-10T12:30:55.790Z,53.9
2017-04-10T12:31:57.964Z,53
2017-04-10T12:32:59.817Z,52.6
2017-04-10T12:34:01.994Z,52.7
2017-04-10T12:35:03.847Z,51.7
2017-04-10T12:36:05.695Z,51.4
2017-04-10T12:37:07.534Z,52.1
2017-04-10T12:38:09.747Z,52.7
2017-04-10T12:39:11.582Z,53.8
2017-04-10T12:40:13.422Z,53.5
2017-04-10T12:41:15.262Z,53.3
2017-04-10T12:42:17.096Z,54.3
2017-04-10T12:43:19.280Z,54.5
2017-04-10T12:44:21.113Z,53.9
2017-04-10T12:45:22.963Z,54.6
2017-04-10T12:46:24.793Z,53.5
2017-04-10T12:47:26.643Z,54
2017-04-10T12:48:28.492Z,54
2017-04-10T12:49:30.340Z,52
2017-04-10T12:50:32.171Z,50.2
2017-04-10T12:51:34.024Z,50.8
2017-04-10T12:52:35.886Z,52.2
2017-04-10T12:53:37.730Z,47.9
2017-04-10T12:54:39.590Z,48.2
2017-04-10T12:55:41.431Z,48.1
2017-04-10T12:56:43.269Z,48.9
2017-04-10T12:57:45.112Z,49.1
2017-04-10T12:58:46.964Z,48.7
2017-04-10T12:59:48.812Z,49.4
2017-04-10T13:00:50.668Z,49.3
2017-04-10T13:01:52.500Z,50.5
2017-04-10T13:02:54.382Z,50.5
2017-04-10T13:03:56.221Z,51.4
2017-04-10T13:04:58.063Z,51.3
2017-04-10T13:05:59.911Z,51.3
2017-04-10T13:07:01.743Z,51.1
2017-04-10T13:08:03.601Z,51.8
2017-04-10T13:09:05.431Z,52
2017-04-10T13:10:07.947Z,52.5
2017-04-10T13:11:10.133Z,52.1
2017-04-10T13:12:11.969Z,52.2
2017-04-10T13:13:13.812Z,53
2017-04-10T13:14:15.644Z,54.6
2017-04-10T13:15:17.488Z,54.4
2017-04-10T13:16:19.334Z,53.3
2017-04-10T13:17:21.208Z,54.4
2017-04-10T13:18:23.083Z,55.6
2017-04-10T13:19:24.920Z,55
2017-04-10T13:20:26.754Z,54.7
2017-04-10T13:21:28.600Z,55.7
2017-04-10T13:22:30.452Z,56.2
2017-04-10T13:23:32.281Z,55.9
2017-04-10T13:24:34.115Z,56
2017-04-10T13:25:35.969Z,56.1
2017-04-10T13:26:37.807Z,55.2
2017-04-10T13:27:39.661Z,56.3
2017-04-10T13:28:41.512Z,55.5
2017-04-10T13:29:43.347Z,54.9
2017-04-10T13:30:45.188Z,56
2017-04-10T13:31:47.023Z,56.5
2017-04-10T13:32:48.877Z,56.4
2017-04-10T13:33:50.714Z,56.9
2017-04-10T13:34:52.549Z,57.8
2017-04-10T13:35:54.391Z,56.4
2017-04-10T13:36:56.229Z,57.2
2017-04-10T13:37:58.070Z,56.9
2017-04-10T13:38:59.912Z,57
2017-04-10T13:40:01.759Z,58.1
2017-04-10T13:41:03.588Z,55.6
2017-04-10T13:42:05.423Z,56.9
2017-04-10T13:43:07.251Z,56.5
2017-04-10T13:44:09.432Z,56.4
2017-04-10T13:45:11.261Z,56.7
2017-04-10T13:46:13.099Z,56.7
2017-04-10T13:47:14.929Z,57.7
2017-04-10T13:48:16.755Z,56
2017-04-10T13:49:18.595Z,55.7
2017-04-10T13:50:20.428Z,56.1